Time;durP1;ratioP1;P1;durP2;ratioP2;P2;SDS_P1;SDS_P2;PMS_P1;PMS_P2;Temp;Humidity;BMP_temperature;BMP_pressure;BME280_temperature;BME280_humidity;BME280_pressure;Samples;Min_cycle;Max_cycle;Signal;HPM_P1;HPM_P2
2023/04/21 20:40:03;;;;;;;2.50;0.70;;;11.90;93.10;;;;;;1959201;73;25735;-52
2023/04/21 20:42:32;;;;;;;4.47;0.93;;;11.80;93.10;;;;;;1918677;75;21089;-50
2023/04/21 20:45:02;;;;;;;1.12;0.90;;;11.80;93.20;;;;;;1918464;75;21070;-51
2023/04/21 20:47:32;;;;;;;2.30;0.80;;;11.80;93.20;;;;;;1918417;73;21106;-52
2023/04/21 20:50:01;;;;;;;1.05;0.62;;;11.80;93.10;;;;;;1918363;75;21221;-51
2023/04/21 20:52:30;;;;;;;2.12;0.80;;;11.90;93.20;;;;;;1918550;75;21134;-52
2023/04/21 20:54:59;;;;;;;1.87;1.00;;;11.90;93.10;;;;;;1918433;75;21150;-52
2023/04/21 20:57:29;;;;;;;4.25;1.20;;;11.90;93.10;;;;;;1918462;75;21130;-51
2023/04/21 20:59:58;;;;;;;2.70;1.20;;;11.90;93.10;;;;;;1918566;75;21239;-52
2023/04/21 21:02:27;;;;;;;0.75;0.68;;;11.90;93.20;;;;;;1918432;75;21118;-53
2023/04/21 21:04:57;;;;;;;2.00;0.75;;;11.90;93.20;;;;;;1918540;75;21132;-53
2023/04/21 21:07:26;;;;;;;1.27;0.85;;;11.90;93.20;;;;;;1918420;75;20983;-51
2023/04/21 21:09:56;;;;;;;1.52;1.20;;;11.90;93.10;;;;;;1918480;75;21210;-51
2023/04/21 21:12:25;;;;;;;1.52;1.27;;;11.90;93.10;;;;;;1918425;75;21138;-52
2023/04/21 21:14:54;;;;;;;2.05;0.70;;;11.90;93.20;;;;;;1918500;75;21239;-51
2023/04/21 21:17:24;;;;;;;1.80;0.90;;;11.90;93.10;;;;;;1918582;74;21066;-51
2023/04/21 21:19:53;;;;;;;3.58;0.75;;;12.00;93.20;;;;;;1918433;75;21232;-50
2023/04/21 21:22:22;;;;;;;0.70;0.60;;;12.00;93.40;;;;;;1918436;75;21247;-54
2023/04/21 21:24:51;;;;;;;2.15;0.70;;;11.90;93.20;;;;;;1918439;75;21070;-51
2023/04/21 21:27:20;;;;;;;2.30;0.80;;;11.90;93.20;;;;;;1918443;74;21019;-51
2023/04/21 21:29:49;;;;;;;1.45;0.62;;;11.90;93.20;;;;;;1918526;73;21043;-56
2023/04/21 21:32:18;;;;;;;2.67;0.60;;;11.80;93.10;;;;;;1918457;75;21202;-52
2023/04/21 21:34:48;;;;;;;1.65;0.70;;;11.80;93.10;;;;;;1918398;74;21130;-51
2023/04/21 21:37:17;;;;;;;2.02;1.17;;;11.80;93.10;;;;;;1918448;75;21137;-53
2023/04/21 21:39:46;;;;;;;2.50;1.27;;;11.80;93.20;;;;;;1923024;74;21098;-51
2023/04/21 21:42:16;;;;;;;1.90;1.10;;;11.70;93.20;;;;;;1925430;74;21276;-50
2023/04/21 21:44:45;;;;;;;1.57;0.80;;;11.70;93.20;;;;;;1925440;74;21126;-53
2023/04/21 21:47:16;;;;;;;1.47;1.10;;;11.70;93.30;;;;;;1925414;74;21283;-52
2023/04/21 21:49:45;;;;;;;1.40;0.70;;;11.70;93.30;;;;;;1925300;74;21662;-52
2023/04/21 21:52:14;;;;;;;1.27;1.00;;;11.60;93.30;;;;;;1924838;74;21122;-54
2023/04/21 21:54:43;;;;;;;7.45;1.00;;;11.60;93.30;;;;;;1924777;74;21105;-54
2023/04/21 21:57:13;;;;;;;1.05;0.88;;;11.60;93.30;;;;;;1924681;74;21240;-51
2023/04/21 21:59:42;;;;;;;1.42;0.82;;;11.60;93.50;;;;;;1924668;74;21094;-52
2023/04/21 22:02:11;;;;;;;1.95;0.70;;;11.60;93.30;;;;;;1924812;74;21122;-51
2023/04/21 22:04:40;;;;;;;1.05;0.90;;;11.60;93.40;;;;;;1924666;74;21128;-53
2023/04/21 22:07:09;;;;;;;1.35;0.95;;;11.60;93.40;;;;;;1924624;74;21275;-53
2023/04/21 22:09:39;;;;;;;2.30;0.82;;;11.60;93.30;;;;;;1924740;74;21219;-51
2023/04/21 22:12:08;;;;;;;4.33;1.25;;;11.60;93.30;;;;;;1924724;74;21050;-54
2023/04/21 22:14:37;;;;;;;1.52;0.93;;;11.50;93.30;;;;;;1924668;74;21251;-51
2023/04/21 22:17:06;;;;;;;1.02;0.80;;;11.60;93.30;;;;;;1924807;74;21066;-53
2023/04/21 22:19:36;;;;;;;1.32;0.70;;;11.50;93.40;;;;;;1924856;74;21165;-53
2023/04/21 22:22:06;;;;;;;0.82;0.82;;;11.50;93.30;;;;;;1924881;74;21389;-51
2023/04/21 22:24:34;;;;;;;2.47;0.80;;;11.50;93.50;;;;;;1924882;74;21141;-51
2023/04/21 22:27:03;;;;;;;1.02;0.78;;;11.50;93.50;;;;;;1924847;74;21220;-51
2023/04/21 22:29:32;;;;;;;0.90;0.90;;;11.50;93.70;;;;;;1924835;74;21225;-51
2023/04/21 22:32:02;;;;;;;1.02;0.80;;;11.50;93.70;;;;;;1924876;74;21126;-51
2023/04/21 22:34:31;;;;;;;1.47;0.90;;;11.40;93.60;;;;;;1924939;74;21390;-50
2023/04/21 22:37:01;;;;;;;1.47;0.90;;;11.40;93.80;;;;;;1924931;74;21561;-50
2023/04/21 22:39:30;;;;;;;1.30;0.60;;;11.40;93.80;;;;;;1924949;74;21042;-52
2023/04/21 22:41:59;;;;;;;2.00;0.60;;;11.40;93.80;;;;;;1924980;74;21183;-50
2023/04/21 22:44:29;;;;;;;0.90;0.60;;;11.40;93.70;;;;;;1924973;74;21283;-50
2023/04/21 22:46:58;;;;;;;1.22;0.85;;;11.40;93.80;;;;;;1924869;74;21183;-50
2023/04/21 22:49:27;;;;;;;0.93;0.70;;;11.40;93.70;;;;;;1924907;74;21242;-51
2023/04/21 22:51:56;;;;;;;2.75;1.05;;;11.40;93.80;;;;;;1924867;74;21146;-52
2023/04/21 22:54:25;;;;;;;2.98;1.50;;;11.40;93.70;;;;;;1924827;74;21311;-51
2023/04/21 22:56:55;;;;;;;2.40;1.30;;;11.40;93.60;;;;;;1925014;74;21191;-50
2023/04/21 22:59:24;;;;;;;3.72;1.20;;;11.40;93.70;;;;;;1924839;74;21129;-50
2023/04/21 23:01:53;;;;;;;2.67;1.25;;;11.40;93.70;;;;;;1924773;74;21667;-51
2023/04/21 23:04:22;;;;;;;1.42;0.93;;;11.40;93.70;;;;;;1924990;74;21062;-51
2023/04/21 23:06:51;;;;;;;1.30;0.93;;;11.40;93.60;;;;;;1924662;74;21201;-52
2023/04/21 23:09:21;;;;;;;2.02;1.00;;;11.40;93.60;;;;;;1924714;74;21236;-52
2023/04/21 23:11:50;;;;;;;4.65;1.42;;;11.40;93.70;;;;;;1924712;74;21161;-53
2023/04/21 23:14:19;;;;;;;1.52;1.00;;;11.40;93.70;;;;;;1924755;74;21496;-52
2023/04/21 23:16:48;;;;;;;0.70;0.70;;;11.40;93.80;;;;;;1924910;74;21006;-51
2023/04/21 23:19:17;;;;;;;1.22;0.80;;;11.40;93.80;;;;;;1924772;74;21266;-50
2023/04/21 23:21:46;;;;;;;0.80;0.70;;;11.40;93.70;;;;;;1924802;74;21101;-53
2023/04/21 23:24:16;;;;;;;1.90;1.02;;;11.40;93.80;;;;;;1924753;74;21167;-53
2023/04/21 23:26:45;;;;;;;2.17;0.88;;;11.40;93.70;;;;;;1924733;74;21167;-53
2023/04/21 23:29:14;;;;;;;2.58;0.90;;;11.40;93.70;;;;;;1924808;74;21093;-53
2023/04/21 23:31:43;;;;;;;1.27;1.10;;;11.40;93.80;;;;;;1924651;74;21219;-53
2023/04/21 23:34:14;;;;;;;1.90;1.00;;;11.40;93.80;;;;;;1924635;74;21282;-53
2023/04/21 23:36:43;;;;;;;2.15;1.00;;;11.40;93.80;;;;;;1924721;74;21243;-52
2023/04/21 23:39:12;;;;;;;2.15;1.15;;;11.40;93.80;;;;;;1924667;74;21070;-52
2023/04/21 23:41:41;;;;;;;1.72;1.00;;;11.40;93.90;;;;;;1924812;74;21090;-53
2023/04/21 23:44:10;;;;;;;1.72;1.07;;;11.40;93.90;;;;;;1924664;74;21624;-53
2023/04/21 23:46:40;;;;;;;3.12;1.12;;;11.40;94.30;;;;;;1924626;74;21191;-52
2023/04/21 23:49:09;;;;;;;1.87;1.60;;;11.40;94.00;;;;;;1924584;74;21185;-54
2023/04/21 23:51:38;;;;;;;2.87;1.40;;;11.40;94.00;;;;;;1924774;74;20987;-53
2023/04/21 23:54:07;;;;;;;3.35;0.90;;;11.40;94.00;;;;;;1924695;74;21197;-51
2023/04/21 23:56:36;;;;;;;2.37;1.00;;;11.30;94.10;;;;;;1924782;74;21221;-51
2023/04/21 23:59:05;;;;;;;2.75;1.00;;;11.30;94.20;;;;;;1924683;74;21264;-52
